createdAt,value
2018-09-10T00:02:08.354Z,99.90
2018-09-10T00:04:36.164Z,99.90
2018-09-10T00:07:04.008Z,99.90
2018-09-10T00:09:32.015Z,99.90
2018-09-10T00:11:59.880Z,99.90
2018-09-10T00:14:27.772Z,99.90
2018-09-10T00:16:55.478Z,99.90
2018-09-10T00:19:23.208Z,99.90
2018-09-10T00:21:51.116Z,99.90
2018-09-10T00:24:19.540Z,99.90
2018-09-10T00:26:47.578Z,99.90
2018-09-10T00:29:15.282Z,99.90
2018-09-10T00:31:43.095Z,99.90
2018-09-10T00:34:10.800Z,99.90
2018-09-10T00:36:38.553Z,99.90
2018-09-10T00:39:09.585Z,99.90
2018-09-10T00:41:37.541Z,99.90
2018-09-10T00:44:05.370Z,99.90
2018-09-10T00:46:33.744Z,99.90
2018-09-10T00:49:01.803Z,99.90
2018-09-10T00:51:29.672Z,99.90
2018-09-10T00:53:57.417Z,99.90
2018-09-10T00:56:25.258Z,99.90
2018-09-10T00:58:53.035Z,99.90
2018-09-10T01:01:20.792Z,99.90
2018-09-10T01:03:49.046Z,99.90
2018-09-10T01:06:17.050Z,99.90
2018-09-10T01:08:44.751Z,99.90
2018-09-10T01:11:12.568Z,99.90
2018-09-10T01:13:40.572Z,99.90
2018-09-10T01:16:08.319Z,99.90
2018-09-10T01:18:36.163Z,99.90
2018-09-10T01:21:04.230Z,99.90
2018-09-10T01:23:32.280Z,99.90
2018-09-10T01:26:00.760Z,99.90
2018-09-10T01:28:28.446Z,99.90
2018-09-10T01:30:56.335Z,99.90
2018-09-10T01:36:48.224Z,99.90
2018-09-10T01:39:16.012Z,99.90
2018-09-10T01:41:43.787Z,99.90
2018-09-10T01:44:11.556Z,99.90
2018-09-10T01:46:39.255Z,99.90
2018-09-10T01:49:07.233Z,99.90
2018-09-10T01:51:36.626Z,99.90
2018-09-10T01:54:04.376Z,99.90
2018-09-10T01:56:32.209Z,99.90
2018-09-10T01:58:59.907Z,99.90
2018-09-10T02:01:27.675Z,99.90
2018-09-10T02:06:29.695Z,99.90
2018-09-10T02:08:57.489Z,99.90
2018-09-10T02:11:25.201Z,99.90
2018-09-10T02:13:53.150Z,99.90
2018-09-10T02:16:20.948Z,99.90
2018-09-10T02:18:48.619Z,99.90
2018-09-10T02:21:16.848Z,99.90
2018-09-10T02:23:44.914Z,99.90
2018-09-10T02:26:12.761Z,99.90
2018-09-10T02:28:40.890Z,99.90
2018-09-10T02:31:08.633Z,99.90
2018-09-10T02:33:36.484Z,99.90
2018-09-10T02:36:04.714Z,99.90
2018-09-10T02:38:32.552Z,99.90
2018-09-10T02:41:00.533Z,99.90
2018-09-10T02:43:28.690Z,99.90
2018-09-10T02:45:56.514Z,99.90
2018-09-10T02:48:24.561Z,99.90
2018-09-10T02:50:52.597Z,99.90
2018-09-10T02:53:20.589Z,99.90
2018-09-10T02:55:48.380Z,99.90
2018-09-10T02:58:16.211Z,99.90
2018-09-10T03:00:44.167Z,99.90
2018-09-10T03:03:12.010Z,99.90
2018-09-10T03:05:39.852Z,99.90
2018-09-10T03:08:07.837Z,99.90
2018-09-10T03:10:35.720Z,99.90
2018-09-10T03:13:03.692Z,99.90
2018-09-10T03:15:31.715Z,99.90
2018-09-10T03:17:59.459Z,99.90
2018-09-10T03:20:27.316Z,99.90
2018-09-10T03:22:55.215Z,99.90
2018-09-10T03:25:23.007Z,99.90
2018-09-10T03:27:50.732Z,99.90
2018-09-10T03:30:18.428Z,99.90
2018-09-10T03:32:46.344Z,99.90
2018-09-10T03:35:13.978Z,99.90
2018-09-10T03:37:41.804Z,99.90
2018-09-10T03:40:09.621Z,99.90
2018-09-10T03:42:37.747Z,99.90
2018-09-10T03:45:05.552Z,99.90
2018-09-10T03:47:33.292Z,99.90
2018-09-10T03:50:01.183Z,99.90
2018-09-10T03:52:28.984Z,99.90
2018-09-10T03:54:56.857Z,99.90
2018-09-10T03:57:24.762Z,99.90
2018-09-10T03:59:52.736Z,99.90
2018-09-10T04:02:20.467Z,99.90
2018-09-10T04:04:48.142Z,99.90
2018-09-10T04:07:16.829Z,99.90
2018-09-10T04:09:45.252Z,99.90
2018-09-10T04:12:13.055Z,99.90
2018-09-10T04:14:40.970Z,99.90
2018-09-10T04:17:08.684Z,99.90
2018-09-10T04:19:36.569Z,99.90
2018-09-10T04:22:04.382Z,99.90
2018-09-10T04:24:33.169Z,99.90
2018-09-10T04:27:00.987Z,99.90
2018-09-10T04:29:28.911Z,99.90
2018-09-10T04:31:56.989Z,99.90
2018-09-10T04:34:24.682Z,99.90
2018-09-10T04:36:52.477Z,99.90
2018-09-10T04:39:20.565Z,99.90
2018-09-10T04:41:48.347Z,99.90
2018-09-10T04:44:16.194Z,99.90
2018-09-10T04:46:44.141Z,99.90
2018-09-10T04:49:11.912Z,99.90
2018-09-10T04:51:39.804Z,99.90
2018-09-10T04:54:07.495Z,99.90
2018-09-10T04:56:35.997Z,99.90
2018-09-10T04:59:04.083Z,99.90
2018-09-10T05:01:32.006Z,99.90
2018-09-10T05:03:59.976Z,99.90
2018-09-10T05:06:27.803Z,99.90
2018-09-10T05:08:55.678Z,99.90
2018-09-10T05:11:23.771Z,99.90
2018-09-10T05:13:51.774Z,99.90
2018-09-10T05:16:19.672Z,99.90
2018-09-10T05:18:47.625Z,99.90
2018-09-10T05:21:15.547Z,99.90
2018-09-10T05:23:43.564Z,99.90
2018-09-10T05:26:11.309Z,99.90
2018-09-10T05:28:39.080Z,99.90
2018-09-10T05:31:06.900Z,99.90
2018-09-10T05:33:35.149Z,99.90
2018-09-10T05:36:02.999Z,99.90
2018-09-10T05:38:30.805Z,99.90
2018-09-10T05:40:58.737Z,99.90
2018-09-10T05:43:26.506Z,99.90
2018-09-10T05:45:54.237Z,99.90
2018-09-10T05:48:22.264Z,99.90
2018-09-10T05:50:50.092Z,99.90
2018-09-10T05:53:17.864Z,99.90
2018-09-10T05:55:45.633Z,99.90
2018-09-10T05:58:13.362Z,99.90
2018-09-10T06:00:41.349Z,99.90
2018-09-10T06:03:09.142Z,99.90
2018-09-10T06:05:37.576Z,99.90
2018-09-10T06:08:05.417Z,99.90
2018-09-10T06:10:33.373Z,99.90
2018-09-10T06:13:01.727Z,99.90
2018-09-10T06:15:29.667Z,99.90
2018-09-10T06:17:57.529Z,99.90
2018-09-10T06:20:25.737Z,99.90
2018-09-10T06:22:54.046Z,99.90
2018-09-10T06:25:21.917Z,99.90
2018-09-10T06:27:49.955Z,99.90
2018-09-10T06:30:18.035Z,99.90
2018-09-10T06:32:46.802Z,99.90
2018-09-10T06:35:14.676Z,99.90
2018-09-10T06:37:42.542Z,99.90
2018-09-10T06:40:10.933Z,99.90
2018-09-10T06:42:38.896Z,99.90
2018-09-10T06:45:06.956Z,99.90
2018-09-10T06:47:35.831Z,99.90
2018-09-10T06:50:03.780Z,99.90
2018-09-10T06:52:32.244Z,99.90
2018-09-10T06:55:00.560Z,99.90
2018-09-10T06:57:28.372Z,99.90
2018-09-10T06:59:56.410Z,99.90
2018-09-10T07:02:24.414Z,99.90
2018-09-10T07:04:52.245Z,99.90
2018-09-10T07:07:20.123Z,99.90
2018-09-10T07:09:48.071Z,99.90
2018-09-10T07:12:15.800Z,99.90
2018-09-10T07:14:43.705Z,99.90
2018-09-10T07:17:11.787Z,99.90
2018-09-10T07:19:39.582Z,99.90
2018-09-10T07:22:07.486Z,99.90
2018-09-10T07:24:35.325Z,99.90
2018-09-10T07:27:03.062Z,99.90
2018-09-10T07:29:30.800Z,99.90
2018-09-10T07:31:58.599Z,99.90
2018-09-10T07:34:26.453Z,99.90
2018-09-10T07:36:54.368Z,99.90
2018-09-10T07:39:22.142Z,99.90
2018-09-10T07:41:50.001Z,99.90
2018-09-10T07:44:18.279Z,99.90
2018-09-10T07:46:46.174Z,99.90
2018-09-10T07:49:14.037Z,99.90
2018-09-10T07:51:41.718Z,99.90
2018-09-10T07:54:09.498Z,99.90
2018-09-10T07:56:37.258Z,99.90
2018-09-10T07:59:05.093Z,99.90
2018-09-10T08:01:33.034Z,99.90
2018-09-10T08:04:00.660Z,99.00
2018-09-10T08:06:28.328Z,98.70
2018-09-10T08:08:56.157Z,96.40
2018-09-10T08:11:23.906Z,92.60
2018-09-10T08:13:52.887Z,91.00
2018-09-10T08:16:20.617Z,92.20
2018-09-10T08:18:48.367Z,90.60
2018-09-10T08:21:16.080Z,89.90
2018-09-10T08:23:43.985Z,89.40
2018-09-10T08:26:11.843Z,85.80
2018-09-10T08:28:39.693Z,86.40
2018-09-10T08:31:07.527Z,87.20
2018-09-10T08:33:35.365Z,85.30
2018-09-10T08:36:03.307Z,81.60
2018-09-10T08:38:31.247Z,81.60
2018-09-10T08:40:59.111Z,82.20
2018-09-10T08:43:26.827Z,81.60
2018-09-10T08:45:54.683Z,82.20
2018-09-10T08:48:22.699Z,81.60
2018-09-10T08:50:50.445Z,81.20
2018-09-10T08:53:18.269Z,80.30
2018-09-10T08:55:46.164Z,80.20
2018-09-10T08:58:13.781Z,79.00
2018-09-10T09:00:41.635Z,78.70
2018-09-10T09:03:09.477Z,82.30
2018-09-10T09:05:37.263Z,81.30
2018-09-10T09:08:05.191Z,79.60
2018-09-10T09:10:33.018Z,78.20
2018-09-10T09:13:00.762Z,76.30
2018-09-10T09:15:28.575Z,76.70
2018-09-10T09:17:56.769Z,75.40
2018-09-10T09:20:24.560Z,76.70
2018-09-10T09:22:53.055Z,75.30
2018-09-10T09:25:21.073Z,75.80
2018-09-10T09:27:48.817Z,73.10
2018-09-10T09:30:16.755Z,70.50
2018-09-10T09:32:44.367Z,71.60
2018-09-10T09:35:12.127Z,71.80
2018-09-10T09:37:45.682Z,68.60
2018-09-10T09:40:19.023Z,69.20
2018-09-10T09:42:52.362Z,69.10
2018-09-10T09:46:25.669Z,67.20
2018-09-10T09:48:53.805Z,66.80
2018-09-10T09:51:21.593Z,68.80
2018-09-10T09:53:49.473Z,68.30
2018-09-10T09:56:17.193Z,68.70
2018-09-10T09:58:45.228Z,65.60
2018-09-10T10:01:18.728Z,68.50
2018-09-10T10:03:52.049Z,69.10
2018-09-10T10:06:19.854Z,66.90
2018-09-10T10:08:47.768Z,69.50
2018-09-10T10:11:15.572Z,69.60
2018-09-10T10:13:43.805Z,67.60
2018-09-10T10:16:11.527Z,66.80
2018-09-10T10:18:39.400Z,68.60
2018-09-10T10:21:07.460Z,67.80
2018-09-10T10:23:35.535Z,67.10
2018-09-10T10:26:03.281Z,67.10
2018-09-10T10:28:31.317Z,67.70
2018-09-10T10:30:59.113Z,67.50
2018-09-10T10:33:26.886Z,66.90
2018-09-10T10:35:54.642Z,67.30
2018-09-10T10:38:22.453Z,67.60
2018-09-10T10:40:50.209Z,67.00
2018-09-10T10:43:18.120Z,68.80
2018-09-10T10:45:45.854Z,68.30
2018-09-10T10:48:13.789Z,69.70
2018-09-10T10:50:41.618Z,70.40
2018-09-10T10:53:09.385Z,70.40
2018-09-10T10:55:37.154Z,68.90
2018-09-10T10:58:05.280Z,69.40
2018-09-10T11:00:32.961Z,67.60
2018-09-10T11:03:00.693Z,69.30
2018-09-10T11:05:28.645Z,67.10
2018-09-10T11:07:56.337Z,67.40
2018-09-10T11:10:24.162Z,65.30
2018-09-10T11:12:52.029Z,67.30
2018-09-10T11:15:20.069Z,66.60
2018-09-10T11:17:47.916Z,67.70
2018-09-10T11:20:16.584Z,68.50
2018-09-10T11:22:44.577Z,68.40
2018-09-10T11:25:12.408Z,67.50
2018-09-10T11:27:40.250Z,63.90
2018-09-10T11:30:08.426Z,64.20
2018-09-10T11:32:36.575Z,64.10
2018-09-10T11:35:04.369Z,63.80
2018-09-10T11:37:32.209Z,64.10
2018-09-10T11:40:00.058Z,65.90
2018-09-10T11:42:28.140Z,67.60
2018-09-10T11:44:55.800Z,66.60
2018-09-10T11:47:23.632Z,66.10
2018-09-10T11:49:51.522Z,63.60
2018-09-10T11:52:19.458Z,64.50
2018-09-10T11:54:47.370Z,63.60
2018-09-10T11:57:15.188Z,64.50
2018-09-10T11:59:44.135Z,65.10
2018-09-10T12:02:12.143Z,64.40
2018-09-10T12:04:40.274Z,64.00
2018-09-10T12:07:08.465Z,63.20
2018-09-10T12:09:36.595Z,64.80
2018-09-10T12:12:04.622Z,65.50
2018-09-10T12:14:32.517Z,65.10
2018-09-10T12:17:00.312Z,63.50
2018-09-10T12:19:28.116Z,64.30
2018-09-10T12:21:56.282Z,64.10
2018-09-10T12:24:24.060Z,64.90
2018-09-10T12:26:51.851Z,64.30
2018-09-10T12:29:19.937Z,65.50
2018-09-10T12:31:48.008Z,62.30
2018-09-10T12:34:15.900Z,63.00
2018-09-10T12:45:32.283Z,64.20
2018-09-10T12:48:17.093Z,65.40
2018-09-10T12:51:07.435Z,63.50
2018-09-10T12:56:51.237Z,63.60
2018-09-10T12:59:28.235Z,65.30
2018-09-10T13:01:56.452Z,64.00
2018-09-10T13:04:33.488Z,65.40
2018-09-10T13:07:17.785Z,64.80
2018-09-10T13:09:51.634Z,63.70
2018-09-10T13:12:23.509Z,63.70
2018-09-10T13:15:00.409Z,64.70
2018-09-10T13:17:32.956Z,65.70
2018-09-10T13:22:59.885Z,65.70
2018-09-10T13:25:47.582Z,64.80
2018-09-10T13:33:54.513Z,66.30
2018-09-10T13:36:30.044Z,67.30
2018-09-10T13:39:12.778Z,63.70
2018-09-10T13:44:44.102Z,65.30
2018-09-10T13:58:22.847Z,65.70
2018-09-10T14:03:51.187Z,65.40
2018-09-10T14:09:20.923Z,65.50
2018-09-10T14:14:58.576Z,65.50
2018-09-10T14:26:01.716Z,65.50
2018-09-10T14:31:35.320Z,65.60
2018-09-10T14:34:05.835Z,65.80
2018-09-10T14:37:31.388Z,66.10
2018-09-10T14:42:55.044Z,66.60
2018-09-10T14:45:27.001Z,66.20
2018-09-10T14:48:03.374Z,67.40
2018-09-10T14:55:41.631Z,67.00
2018-09-10T15:01:00.892Z,67.70
2018-09-10T15:06:12.237Z,67.80
2018-09-10T15:09:03.960Z,67.70
2018-09-10T15:11:43.770Z,67.60
2018-09-10T15:14:11.731Z,68.40
2018-09-10T15:16:42.437Z,69.30
2018-09-10T15:19:16.560Z,69.60
2018-09-10T15:21:48.079Z,70.20
2018-09-10T15:24:21.402Z,70.20
2018-09-10T15:26:58.329Z,70.90
2018-09-10T15:29:36.796Z,71.20
2018-09-10T15:32:16.411Z,71.00
2018-09-10T15:34:49.813Z,70.30
2018-09-10T15:37:24.364Z,70.50
2018-09-10T15:39:56.893Z,71.80
2018-09-10T15:42:27.747Z,70.80
2018-09-10T15:45:05.124Z,72.20
2018-09-10T15:47:48.595Z,71.60
2018-09-10T15:50:37.584Z,70.50
2018-09-10T15:53:11.103Z,70.70
2018-09-10T15:55:53.098Z,71.40
2018-09-10T15:58:30.143Z,73.60
2018-09-10T16:01:10.093Z,72.80
2018-09-10T16:03:40.075Z,74.50
2018-09-10T16:06:21.506Z,76.20
2018-09-10T16:08:50.987Z,73.10
2018-09-10T16:11:26.822Z,72.20
2018-09-10T16:14:05.753Z,72.30
2018-09-10T16:16:34.413Z,73.80
2018-09-10T16:21:45.140Z,72.40
2018-09-10T16:24:21.532Z,72.30
2018-09-10T16:26:53.744Z,72.10
2018-09-10T16:29:34.815Z,72.10
2018-09-10T16:32:20.613Z,74.10
2018-09-10T16:34:57.477Z,73.40
2018-09-10T16:37:30.716Z,74.60
2018-09-10T16:40:05.319Z,74.60
2018-09-10T16:45:22.578Z,77.00
2018-09-10T16:47:54.565Z,76.80
2018-09-10T16:50:26.271Z,76.90
2018-09-10T16:52:58.492Z,77.50
2018-09-10T16:58:19.753Z,80.70
2018-09-10T17:00:52.209Z,80.40
2018-09-10T17:03:32.935Z,82.60
2018-09-10T17:06:03.286Z,81.60
2018-09-10T17:08:40.454Z,82.70
2018-09-10T17:11:18.832Z,83.20
2018-09-10T17:13:57.658Z,83.80
2018-09-10T17:16:31.086Z,85.10
2018-09-10T17:19:03.050Z,85.70
2018-09-10T17:25:19.690Z,87.60
2018-09-10T17:28:02.415Z,88.70
2018-09-10T17:30:38.276Z,89.20
2018-09-10T17:33:11.935Z,89.80
2018-09-10T17:38:41.628Z,90.70
2018-09-10T17:49:46.429Z,92.00
2018-09-10T17:52:24.810Z,92.20
2018-09-10T17:55:03.450Z,92.90
2018-09-10T17:57:45.434Z,93.10
2018-09-10T18:03:28.288Z,93.50
2018-09-10T18:06:29.835Z,93.60
2018-09-10T18:09:12.166Z,93.70
2018-09-10T18:23:19.205Z,95.70
2018-09-10T18:25:48.971Z,95.90
2018-09-10T18:28:24.922Z,95.90
2018-09-10T18:33:51.145Z,96.10
2018-09-10T18:36:25.543Z,96.50
2018-09-10T18:41:56.314Z,97.10
2018-09-10T18:47:40.432Z,97.30
2018-09-10T18:50:10.842Z,97.60
2018-09-10T18:52:54.376Z,97.90
2018-09-10T18:58:25.742Z,98.00
2018-09-10T19:03:37.686Z,98.30
2018-09-10T19:06:14.536Z,98.20
2018-09-10T19:09:12.058Z,98.60
2018-09-10T19:14:45.183Z,98.20
2018-09-10T19:22:46.150Z,99.10
2018-09-10T19:25:24.390Z,99.30
2018-09-10T19:27:53.725Z,99.20
2018-09-10T19:30:39.891Z,99.60
2018-09-10T19:33:12.620Z,99.40
2018-09-10T19:38:47.211Z,98.90
2018-09-10T19:41:26.887Z,99.00
2018-09-10T19:46:49.906Z,99.00
2018-09-10T19:49:27.911Z,99.90
2018-09-10T19:52:05.404Z,99.90
2018-09-10T19:54:40.295Z,99.90
2018-09-10T19:57:12.206Z,99.60
2018-09-10T19:59:49.620Z,99.30
2018-09-10T20:08:20.066Z,99.90
2018-09-10T20:10:56.949Z,99.90
2018-09-10T20:13:42.088Z,99.90
2018-09-10T20:21:58.610Z,99.90
2018-09-10T20:27:33.861Z,99.90
2018-09-10T20:30:04.100Z,99.90
2018-09-10T20:35:26.156Z,99.90
2018-09-10T20:38:04.965Z,99.90
2018-09-10T20:40:44.823Z,99.90
2018-09-10T20:43:24.878Z,99.90
2018-09-10T20:48:49.118Z,99.90
2018-09-10T20:51:29.983Z,99.90
2018-09-10T20:54:23.568Z,99.90
2018-09-10T20:57:01.502Z,99.90
2018-09-10T20:59:31.700Z,99.90
2018-09-10T21:02:02.936Z,99.90
2018-09-10T21:07:26.483Z,99.90
2018-09-10T21:09:57.921Z,99.90
2018-09-10T21:12:28.178Z,99.90
2018-09-10T21:15:04.151Z,99.90
2018-09-10T21:17:45.589Z,99.90
2018-09-10T21:20:32.623Z,99.90
2018-09-10T21:23:03.482Z,99.90
2018-09-10T21:28:15.982Z,99.90
2018-09-10T21:30:51.059Z,99.90
2018-09-10T21:36:18.424Z,99.90
2018-09-10T21:38:48.484Z,99.90
2018-09-10T21:41:19.110Z,99.90
2018-09-10T21:43:56.234Z,99.90
2018-09-10T21:46:25.137Z,99.90
2018-09-10T21:49:03.143Z,99.90
2018-09-10T21:51:42.378Z,99.90
2018-09-10T21:54:13.663Z,99.90
2018-09-10T21:56:44.035Z,99.90
2018-09-10T21:59:17.016Z,99.90
2018-09-10T22:01:52.316Z,99.90
2018-09-10T22:04:22.666Z,99.90
2018-09-10T22:06:53.829Z,99.90
2018-09-10T22:09:22.796Z,99.90
2018-09-10T22:11:57.601Z,99.90
2018-09-10T22:14:27.527Z,99.90
2018-09-10T22:17:15.236Z,99.90
2018-09-10T22:19:44.708Z,99.90
2018-09-10T22:22:13.705Z,99.90
2018-09-10T22:24:42.418Z,99.90
2018-09-10T22:27:12.506Z,99.90
2018-09-10T22:29:41.216Z,99.90
2018-09-10T22:32:10.347Z,99.90
2018-09-10T22:34:41.104Z,99.90
2018-09-10T22:37:11.180Z,99.90
2018-09-10T22:39:42.356Z,99.90
2018-09-10T22:42:10.175Z,99.90
2018-09-10T22:44:39.135Z,99.90
2018-09-10T22:47:08.725Z,99.90
2018-09-10T22:49:40.752Z,99.90
2018-09-10T22:52:12.060Z,99.90
2018-09-10T22:54:45.841Z,99.90
2018-09-10T22:57:13.653Z,99.90
2018-09-10T22:59:43.769Z,99.90
2018-09-10T23:02:12.013Z,99.90
2018-09-10T23:04:42.200Z,99.90
2018-09-10T23:07:10.443Z,99.90
2018-09-10T23:09:38.287Z,99.90
2018-09-10T23:12:05.968Z,99.90
2018-09-10T23:14:33.891Z,99.90
2018-09-10T23:17:01.727Z,99.90
2018-09-10T23:19:29.644Z,99.90
2018-09-10T23:21:57.475Z,99.90
2018-09-10T23:24:26.067Z,99.90
2018-09-10T23:26:54.023Z,99.90
2018-09-10T23:29:21.950Z,99.90
2018-09-10T23:31:49.813Z,99.90
2018-09-10T23:34:17.610Z,99.90
2018-09-10T23:36:45.430Z,99.90
2018-09-10T23:39:13.367Z,99.90
2018-09-10T23:41:41.465Z,99.90
2018-09-10T23:44:09.322Z,99.90
2018-09-10T23:46:38.400Z,99.90
2018-09-10T23:49:06.185Z,99.90
2018-09-10T23:51:35.174Z,99.90
2018-09-10T23:54:02.952Z,99.90
2018-09-10T23:56:30.736Z,99.90
2018-09-10T23:58:58.648Z,99.90
